sensor_id;sensor_type;location;lat;lon;timestamp;P1;durP1;ratioP1;P2;durP2;ratioP2
48574;SDS011;34352;51.084;3.712;2022-11-14T00:01:32;66.82;;;45.65;;
48574;SDS011;34352;51.084;3.712;2022-11-14T00:03:59;67.25;;;45.15;;
48574;SDS011;34352;51.084;3.712;2022-11-14T00:06:25;57.33;;;41.70;;
48574;SDS011;34352;51.084;3.712;2022-11-14T00:08:50;59.25;;;41.80;;
48574;SDS011;34352;51.084;3.712;2022-11-14T00:11:16;60.65;;;41.42;;
48574;SDS011;34352;51.084;3.712;2022-11-14T00:13:44;62.00;;;40.97;;
48574;SDS011;34352;51.084;3.712;2022-11-14T00:16:18;56.08;;;40.80;;
48574;SDS011;34352;51.084;3.712;2022-11-14T00:18:44;54.60;;;38.38;;
48574;SDS011;34352;51.084;3.712;2022-11-14T00:21:10;55.83;;;39.50;;
48574;SDS011;34352;51.084;3.712;2022-11-14T00:23:37;60.10;;;38.67;;
48574;SDS011;34352;51.084;3.712;2022-11-14T00:26:03;57.45;;;39.85;;
48574;SDS011;34352;51.084;3.712;2022-11-14T00:28:31;59.10;;;39.88;;
48574;SDS011;34352;51.084;3.712;2022-11-14T00:30:58;59.42;;;39.75;;
48574;SDS011;34352;51.084;3.712;2022-11-14T00:33:24;54.05;;;38.22;;
48574;SDS011;34352;51.084;3.712;2022-11-14T00:38:28;63.83;;;40.60;;
48574;SDS011;34352;51.084;3.712;2022-11-14T00:40:54;65.00;;;43.55;;
48574;SDS011;34352;51.084;3.712;2022-11-14T00:43:20;64.45;;;42.75;;
48574;SDS011;34352;51.084;3.712;2022-11-14T00:45:51;57.38;;;39.15;;
48574;SDS011;34352;51.084;3.712;2022-11-14T00:48:19;54.97;;;39.35;;
48574;SDS011;34352;51.084;3.712;2022-11-14T00:50:46;56.42;;;38.45;;
48574;SDS011;34352;51.084;3.712;2022-11-14T00:53:12;65.45;;;43.17;;
48574;SDS011;34352;51.084;3.712;2022-11-14T00:55:39;62.92;;;42.42;;
48574;SDS011;34352;51.084;3.712;2022-11-14T00:58:06;58.88;;;40.75;;
48574;SDS011;34352;51.084;3.712;2022-11-14T01:00:33;56.78;;;38.55;;
48574;SDS011;34352;51.084;3.712;2022-11-14T01:03:00;53.40;;;38.15;;
48574;SDS011;34352;51.084;3.712;2022-11-14T01:05:27;60.78;;;39.85;;
48574;SDS011;34352;51.084;3.712;2022-11-14T01:07:54;59.22;;;42.03;;
48574;SDS011;34352;51.084;3.712;2022-11-14T01:10:19;63.30;;;41.88;;
48574;SDS011;34352;51.084;3.712;2022-11-14T01:12:46;62.28;;;42.05;;
48574;SDS011;34352;51.084;3.712;2022-11-14T01:15:13;57.50;;;39.60;;
48574;SDS011;34352;51.084;3.712;2022-11-14T01:17:41;61.03;;;41.10;;
48574;SDS011;34352;51.084;3.712;2022-11-14T01:20:09;68.20;;;44.33;;
48574;SDS011;34352;51.084;3.712;2022-11-14T01:25:05;62.08;;;40.45;;
48574;SDS011;34352;51.084;3.712;2022-11-14T01:27:31;68.25;;;44.35;;
48574;SDS011;34352;51.084;3.712;2022-11-14T01:29:57;69.88;;;47.13;;
48574;SDS011;34352;51.084;3.712;2022-11-14T01:32:29;69.80;;;46.88;;
48574;SDS011;34352;51.084;3.712;2022-11-14T01:34:54;73.95;;;49.63;;
48574;SDS011;34352;51.084;3.712;2022-11-14T01:37:21;76.93;;;49.60;;
48574;SDS011;34352;51.084;3.712;2022-11-14T01:39:47;75.22;;;49.25;;
48574;SDS011;34352;51.084;3.712;2022-11-14T01:42:14;82.88;;;51.38;;
48574;SDS011;34352;51.084;3.712;2022-11-14T01:44:45;79.75;;;53.47;;
48574;SDS011;34352;51.084;3.712;2022-11-14T01:47:11;76.78;;;51.25;;
48574;SDS011;34352;51.084;3.712;2022-11-14T01:49:41;78.55;;;52.33;;
48574;SDS011;34352;51.084;3.712;2022-11-14T01:52:12;82.35;;;52.05;;
48574;SDS011;34352;51.084;3.712;2022-11-14T01:54:50;76.13;;;52.30;;
48574;SDS011;34352;51.084;3.712;2022-11-14T01:57:22;78.72;;;51.65;;
48574;SDS011;34352;51.084;3.712;2022-11-14T01:59:53;79.57;;;52.55;;
48574;SDS011;34352;51.084;3.712;2022-11-14T02:02:23;87.47;;;55.75;;
48574;SDS011;34352;51.084;3.712;2022-11-14T02:04:50;92.32;;;56.92;;
48574;SDS011;34352;51.084;3.712;2022-11-14T02:07:21;108.88;;;57.95;;
48574;SDS011;34352;51.084;3.712;2022-11-14T02:09:50;109.05;;;58.25;;
48574;SDS011;34352;51.084;3.712;2022-11-14T02:12:17;94.72;;;55.40;;
48574;SDS011;34352;51.084;3.712;2022-11-14T02:14:47;117.90;;;56.33;;
48574;SDS011;34352;51.084;3.712;2022-11-14T02:17:17;125.30;;;57.53;;
48574;SDS011;34352;51.084;3.712;2022-11-14T02:19:48;107.07;;;58.40;;
48574;SDS011;34352;51.084;3.712;2022-11-14T02:27:20;81.82;;;50.47;;
48574;SDS011;34352;51.084;3.712;2022-11-14T02:29:47;77.97;;;50.58;;
48574;SDS011;34352;51.084;3.712;2022-11-14T02:32:13;80.82;;;48.90;;
48574;SDS011;34352;51.084;3.712;2022-11-14T02:34:41;77.05;;;50.42;;
48574;SDS011;34352;51.084;3.712;2022-11-14T02:37:08;78.85;;;47.47;;
48574;SDS011;34352;51.084;3.712;2022-11-14T02:39:36;79.40;;;49.17;;
48574;SDS011;34352;51.084;3.712;2022-11-14T02:42:04;82.40;;;49.97;;
48574;SDS011;34352;51.084;3.712;2022-11-14T02:44:30;77.32;;;47.83;;
48574;SDS011;34352;51.084;3.712;2022-11-14T02:46:58;75.35;;;46.67;;
48574;SDS011;34352;51.084;3.712;2022-11-14T02:49:23;72.25;;;46.75;;
48574;SDS011;34352;51.084;3.712;2022-11-14T02:51:49;107.20;;;52.42;;
48574;SDS011;34352;51.084;3.712;2022-11-14T02:54:15;151.20;;;57.38;;
48574;SDS011;34352;51.084;3.712;2022-11-14T02:56:42;197.82;;;60.63;;
48574;SDS011;34352;51.084;3.712;2022-11-14T02:59:08;179.43;;;57.75;;
48574;SDS011;34352;51.084;3.712;2022-11-14T03:01:35;221.10;;;61.92;;
48574;SDS011;34352;51.084;3.712;2022-11-14T03:04:02;157.50;;;56.67;;
48574;SDS011;34352;51.084;3.712;2022-11-14T03:06:28;175.02;;;60.95;;
48574;SDS011;34352;51.084;3.712;2022-11-14T03:08:55;193.00;;;60.15;;
48574;SDS011;34352;51.084;3.712;2022-11-14T03:11:21;156.63;;;55.40;;
48574;SDS011;34352;51.084;3.712;2022-11-14T03:13:47;128.93;;;54.53;;
48574;SDS011;34352;51.084;3.712;2022-11-14T03:16:14;108.20;;;54.40;;
48574;SDS011;34352;51.084;3.712;2022-11-14T03:18:40;117.25;;;51.53;;
48574;SDS011;34352;51.084;3.712;2022-11-14T03:21:11;123.38;;;52.15;;
48574;SDS011;34352;51.084;3.712;2022-11-14T03:23:38;140.23;;;55.97;;
48574;SDS011;34352;51.084;3.712;2022-11-14T03:26:06;136.25;;;56.30;;
48574;SDS011;34352;51.084;3.712;2022-11-14T03:28:33;138.75;;;55.50;;
48574;SDS011;34352;51.084;3.712;2022-11-14T03:31:00;176.10;;;56.42;;
48574;SDS011;34352;51.084;3.712;2022-11-14T03:33:27;143.85;;;52.45;;
48574;SDS011;34352;51.084;3.712;2022-11-14T03:35:59;157.90;;;54.45;;
48574;SDS011;34352;51.084;3.712;2022-11-14T03:38:26;204.55;;;59.30;;
48574;SDS011;34352;51.084;3.712;2022-11-14T03:40:53;167.77;;;54.63;;
48574;SDS011;34352;51.084;3.712;2022-11-14T03:43:19;159.32;;;55.88;;
48574;SDS011;34352;51.084;3.712;2022-11-14T03:45:47;98.10;;;50.60;;
48574;SDS011;34352;51.084;3.712;2022-11-14T03:48:13;99.88;;;49.83;;
48574;SDS011;34352;51.084;3.712;2022-11-14T03:50:40;142.45;;;53.40;;
48574;SDS011;34352;51.084;3.712;2022-11-14T03:53:06;150.05;;;51.90;;
48574;SDS011;34352;51.084;3.712;2022-11-14T03:55:34;141.63;;;54.60;;
48574;SDS011;34352;51.084;3.712;2022-11-14T03:58:02;116.20;;;49.08;;
48574;SDS011;34352;51.084;3.712;2022-11-14T04:00:28;114.47;;;50.53;;
48574;SDS011;34352;51.084;3.712;2022-11-14T04:02:55;114.47;;;50.65;;
48574;SDS011;34352;51.084;3.712;2022-11-14T04:05:23;129.63;;;49.33;;
48574;SDS011;34352;51.084;3.712;2022-11-14T04:07:50;131.57;;;50.13;;
48574;SDS011;34352;51.084;3.712;2022-11-14T04:10:16;108.15;;;50.50;;
48574;SDS011;34352;51.084;3.712;2022-11-14T04:12:47;114.60;;;49.45;;
48574;SDS011;34352;51.084;3.712;2022-11-14T04:15:16;123.05;;;49.58;;
48574;SDS011;34352;51.084;3.712;2022-11-14T04:17:42;133.70;;;49.55;;
48574;SDS011;34352;51.084;3.712;2022-11-14T04:20:09;132.73;;;52.22;;
48574;SDS011;34352;51.084;3.712;2022-11-14T04:22:37;122.90;;;51.90;;
48574;SDS011;34352;51.084;3.712;2022-11-14T04:25:04;142.10;;;48.65;;
48574;SDS011;34352;51.084;3.712;2022-11-14T04:27:30;141.90;;;49.72;;
48574;SDS011;34352;51.084;3.712;2022-11-14T04:29:57;130.15;;;50.65;;
48574;SDS011;34352;51.084;3.712;2022-11-14T04:32:24;189.93;;;54.58;;
48574;SDS011;34352;51.084;3.712;2022-11-14T04:34:50;170.63;;;54.42;;
48574;SDS011;34352;51.084;3.712;2022-11-14T04:37:17;192.07;;;55.47;;
48574;SDS011;34352;51.084;3.712;2022-11-14T04:39:43;203.60;;;56.38;;
48574;SDS011;34352;51.084;3.712;2022-11-14T04:42:08;194.80;;;57.28;;
48574;SDS011;34352;51.084;3.712;2022-11-14T04:44:34;195.75;;;56.63;;
48574;SDS011;34352;51.084;3.712;2022-11-14T04:46:59;249.15;;;59.92;;
48574;SDS011;34352;51.084;3.712;2022-11-14T04:49:25;206.07;;;57.63;;
48574;SDS011;34352;51.084;3.712;2022-11-14T04:51:51;228.88;;;58.60;;
48574;SDS011;34352;51.084;3.712;2022-11-14T04:54:16;193.88;;;56.15;;
48574;SDS011;34352;51.084;3.712;2022-11-14T04:56:43;170.20;;;55.38;;
48574;SDS011;34352;51.084;3.712;2022-11-14T04:59:12;180.30;;;55.33;;
48574;SDS011;34352;51.084;3.712;2022-11-14T05:01:37;123.32;;;52.80;;
48574;SDS011;34352;51.084;3.712;2022-11-14T05:04:03;139.10;;;52.08;;
48574;SDS011;34352;51.084;3.712;2022-11-14T05:09:48;153.75;;;52.88;;
48574;SDS011;34352;51.084;3.712;2022-11-14T05:12:13;155.20;;;51.58;;
48574;SDS011;34352;51.084;3.712;2022-11-14T05:14:46;199.70;;;55.50;;
48574;SDS011;34352;51.084;3.712;2022-11-14T05:19:41;139.57;;;49.67;;
48574;SDS011;34352;51.084;3.712;2022-11-14T05:22:07;146.95;;;49.85;;
48574;SDS011;34352;51.084;3.712;2022-11-14T05:24:32;116.22;;;48.58;;
48574;SDS011;34352;51.084;3.712;2022-11-14T05:26:59;161.60;;;51.40;;
48574;SDS011;34352;51.084;3.712;2022-11-14T05:29:24;168.45;;;49.28;;
48574;SDS011;34352;51.084;3.712;2022-11-14T05:31:50;164.57;;;51.50;;
48574;SDS011;34352;51.084;3.712;2022-11-14T05:34:16;118.97;;;48.33;;
48574;SDS011;34352;51.084;3.712;2022-11-14T05:36:41;107.65;;;48.72;;
48574;SDS011;34352;51.084;3.712;2022-11-14T05:39:08;121.38;;;49.53;;
48574;SDS011;34352;51.084;3.712;2022-11-14T05:41:34;153.10;;;50.72;;
48574;SDS011;34352;51.084;3.712;2022-11-14T05:43:59;99.90;;;47.60;;
48574;SDS011;34352;51.084;3.712;2022-11-14T05:46:27;101.07;;;47.72;;
48574;SDS011;34352;51.084;3.712;2022-11-14T05:48:53;226.75;;;54.95;;
48574;SDS011;34352;51.084;3.712;2022-11-14T05:51:18;159.40;;;50.55;;
48574;SDS011;34352;51.084;3.712;2022-11-14T05:53:44;195.90;;;53.92;;
48574;SDS011;34352;51.084;3.712;2022-11-14T05:56:10;138.55;;;47.53;;
48574;SDS011;34352;51.084;3.712;2022-11-14T05:58:38;97.65;;;44.72;;
48574;SDS011;34352;51.084;3.712;2022-11-14T06:01:11;161.35;;;49.30;;
48574;SDS011;34352;51.084;3.712;2022-11-14T06:03:40;126.68;;;49.08;;
48574;SDS011;34352;51.084;3.712;2022-11-14T06:06:09;87.25;;;44.13;;
48574;SDS011;34352;51.084;3.712;2022-11-14T06:08:36;128.48;;;46.13;;
48574;SDS011;34352;51.084;3.712;2022-11-14T06:11:23;102.65;;;44.83;;
48574;SDS011;34352;51.084;3.712;2022-11-14T06:13:48;118.03;;;47.00;;
48574;SDS011;34352;51.084;3.712;2022-11-14T06:16:15;96.53;;;45.28;;
48574;SDS011;34352;51.084;3.712;2022-11-14T06:18:42;121.53;;;45.75;;
48574;SDS011;34352;51.084;3.712;2022-11-14T06:21:16;119.25;;;48.17;;
48574;SDS011;34352;51.084;3.712;2022-11-14T06:23:43;105.00;;;44.92;;
48574;SDS011;34352;51.084;3.712;2022-11-14T06:26:11;84.97;;;44.05;;
48574;SDS011;34352;51.084;3.712;2022-11-14T06:28:49;83.45;;;44.20;;
48574;SDS011;34352;51.084;3.712;2022-11-14T06:31:16;86.20;;;43.50;;
48574;SDS011;34352;51.084;3.712;2022-11-14T06:33:44;99.45;;;44.85;;
48574;SDS011;34352;51.084;3.712;2022-11-14T06:36:10;98.00;;;46.13;;
48574;SDS011;34352;51.084;3.712;2022-11-14T06:38:38;110.55;;;46.25;;
48574;SDS011;34352;51.084;3.712;2022-11-14T06:43:43;83.15;;;43.55;;
48574;SDS011;34352;51.084;3.712;2022-11-14T06:46:20;126.43;;;51.00;;
48574;SDS011;34352;51.084;3.712;2022-11-14T06:48:49;117.32;;;50.42;;
48574;SDS011;34352;51.084;3.712;2022-11-14T06:51:18;78.82;;;43.67;;
48574;SDS011;34352;51.084;3.712;2022-11-14T06:53:44;84.88;;;44.63;;
48574;SDS011;34352;51.084;3.712;2022-11-14T06:56:15;91.15;;;46.25;;
48574;SDS011;34352;51.084;3.712;2022-11-14T06:58:44;82.53;;;44.40;;
48574;SDS011;34352;51.084;3.712;2022-11-14T07:03:48;77.50;;;42.55;;
48574;SDS011;34352;51.084;3.712;2022-11-14T07:06:18;85.18;;;45.80;;
48574;SDS011;34352;51.084;3.712;2022-11-14T07:11:12;77.75;;;41.60;;
48574;SDS011;34352;51.084;3.712;2022-11-14T07:13:50;81.43;;;42.65;;
48574;SDS011;34352;51.084;3.712;2022-11-14T07:16:27;82.80;;;44.08;;
48574;SDS011;34352;51.084;3.712;2022-11-14T07:18:54;75.93;;;42.97;;
48574;SDS011;34352;51.084;3.712;2022-11-14T07:21:21;84.22;;;44.72;;
48574;SDS011;34352;51.084;3.712;2022-11-14T07:23:51;78.90;;;43.25;;
48574;SDS011;34352;51.084;3.712;2022-11-14T07:26:17;79.28;;;43.47;;
48574;SDS011;34352;51.084;3.712;2022-11-14T07:28:45;79.57;;;43.47;;
48574;SDS011;34352;51.084;3.712;2022-11-14T07:31:13;77.20;;;43.58;;
48574;SDS011;34352;51.084;3.712;2022-11-14T07:36:13;82.28;;;42.72;;
48574;SDS011;34352;51.084;3.712;2022-11-14T07:38:40;80.20;;;44.00;;
48574;SDS011;34352;51.084;3.712;2022-11-14T07:41:07;88.10;;;46.17;;
48574;SDS011;34352;51.084;3.712;2022-11-14T07:43:38;82.13;;;43.83;;
48574;SDS011;34352;51.084;3.712;2022-11-14T07:46:14;88.60;;;46.15;;
48574;SDS011;34352;51.084;3.712;2022-11-14T07:48:42;90.57;;;48.00;;
48574;SDS011;34352;51.084;3.712;2022-11-14T07:51:09;92.50;;;49.55;;
48574;SDS011;34352;51.084;3.712;2022-11-14T07:53:39;86.85;;;46.85;;
48574;SDS011;34352;51.084;3.712;2022-11-14T07:56:12;77.80;;;46.33;;
48574;SDS011;34352;51.084;3.712;2022-11-14T07:58:43;73.68;;;43.50;;
48574;SDS011;34352;51.084;3.712;2022-11-14T08:01:10;65.03;;;46.70;;
48574;SDS011;34352;51.084;3.712;2022-11-14T08:03:37;107.65;;;76.90;;
48574;SDS011;34352;51.084;3.712;2022-11-14T08:06:07;76.95;;;57.65;;
48574;SDS011;34352;51.084;3.712;2022-11-14T08:08:36;57.90;;;42.95;;
48574;SDS011;34352;51.084;3.712;2022-11-14T08:11:03;39.95;;;29.27;;
48574;SDS011;34352;51.084;3.712;2022-11-14T08:13:30;40.78;;;30.23;;
48574;SDS011;34352;51.084;3.712;2022-11-14T08:15:56;36.20;;;27.55;;
48574;SDS011;34352;51.084;3.712;2022-11-14T08:18:24;33.80;;;25.65;;
48574;SDS011;34352;51.084;3.712;2022-11-14T08:20:50;33.13;;;23.95;;
48574;SDS011;34352;51.084;3.712;2022-11-14T08:23:16;28.20;;;20.30;;
48574;SDS011;34352;51.084;3.712;2022-11-14T08:25:42;26.70;;;18.63;;
48574;SDS011;34352;51.084;3.712;2022-11-14T08:28:08;23.65;;;17.35;;
48574;SDS011;34352;51.084;3.712;2022-11-14T08:30:35;20.63;;;15.93;;
48574;SDS011;34352;51.084;3.712;2022-11-14T08:33:01;22.60;;;16.65;;
48574;SDS011;34352;51.084;3.712;2022-11-14T08:35:28;22.30;;;16.42;;
48574;SDS011;34352;51.084;3.712;2022-11-14T08:37:54;22.35;;;16.83;;
48574;SDS011;34352;51.084;3.712;2022-11-14T08:40:19;19.77;;;16.25;;
48574;SDS011;34352;51.084;3.712;2022-11-14T08:42:45;20.63;;;16.25;;
48574;SDS011;34352;51.084;3.712;2022-11-14T08:45:11;19.38;;;16.13;;
48574;SDS011;34352;51.084;3.712;2022-11-14T08:47:36;19.10;;;15.85;;
48574;SDS011;34352;51.084;3.712;2022-11-14T08:50:02;22.27;;;16.60;;
48574;SDS011;34352;51.084;3.712;2022-11-14T08:52:28;19.58;;;16.15;;
48574;SDS011;34352;51.084;3.712;2022-11-14T08:54:54;19.48;;;15.10;;
48574;SDS011;34352;51.084;3.712;2022-11-14T08:57:19;20.75;;;16.63;;
48574;SDS011;34352;51.084;3.712;2022-11-14T08:59:45;21.30;;;15.95;;
48574;SDS011;34352;51.084;3.712;2022-11-14T09:02:11;22.10;;;16.60;;
48574;SDS011;34352;51.084;3.712;2022-11-14T09:04:40;24.05;;;16.40;;
48574;SDS011;34352;51.084;3.712;2022-11-14T09:07:06;22.33;;;16.42;;
48574;SDS011;34352;51.084;3.712;2022-11-14T09:09:32;21.10;;;17.10;;
48574;SDS011;34352;51.084;3.712;2022-11-14T09:11:59;22.60;;;17.08;;
48574;SDS011;34352;51.084;3.712;2022-11-14T09:14:24;21.80;;;16.70;;
48574;SDS011;34352;51.084;3.712;2022-11-14T09:16:50;24.30;;;16.90;;
48574;SDS011;34352;51.084;3.712;2022-11-14T09:19:15;21.02;;;17.48;;
48574;SDS011;34352;51.084;3.712;2022-11-14T09:21:41;20.85;;;17.30;;
48574;SDS011;34352;51.084;3.712;2022-11-14T09:24:07;21.70;;;16.83;;
48574;SDS011;34352;51.084;3.712;2022-11-14T09:26:33;19.30;;;16.63;;
48574;SDS011;34352;51.084;3.712;2022-11-14T09:28:59;23.48;;;17.35;;
48574;SDS011;34352;51.084;3.712;2022-11-14T09:31:26;21.85;;;17.33;;
48574;SDS011;34352;51.084;3.712;2022-11-14T09:33:52;22.65;;;17.48;;
48574;SDS011;34352;51.084;3.712;2022-11-14T09:36:18;23.38;;;17.10;;
48574;SDS011;34352;51.084;3.712;2022-11-14T09:38:44;20.30;;;16.15;;
48574;SDS011;34352;51.084;3.712;2022-11-14T09:46:48;20.13;;;15.93;;
48574;SDS011;34352;51.084;3.712;2022-11-14T09:52:24;20.83;;;17.80;;
48574;SDS011;34352;51.084;3.712;2022-11-14T09:57:42;20.88;;;16.70;;
48574;SDS011;34352;51.084;3.712;2022-11-14T10:05:39;22.02;;;17.20;;
48574;SDS011;34352;51.084;3.712;2022-11-14T10:14:40;21.27;;;15.93;;
48574;SDS011;34352;51.084;3.712;2022-11-14T10:25:29;20.17;;;16.98;;
48574;SDS011;34352;51.084;3.712;2022-11-14T10:31:00;22.00;;;16.67;;
48574;SDS011;34352;51.084;3.712;2022-11-14T10:33:57;21.83;;;17.00;;
48574;SDS011;34352;51.084;3.712;2022-11-14T10:42:13;20.17;;;17.50;;
48574;SDS011;34352;51.084;3.712;2022-11-14T10:44:46;23.58;;;19.33;;
48574;SDS011;34352;51.084;3.712;2022-11-14T10:47:17;19.92;;;17.35;;
48574;SDS011;34352;51.084;3.712;2022-11-14T10:49:47;22.90;;;17.13;;
48574;SDS011;34352;51.084;3.712;2022-11-14T10:52:17;22.95;;;18.65;;
48574;SDS011;34352;51.084;3.712;2022-11-14T10:54:50;22.10;;;18.85;;
48574;SDS011;34352;51.084;3.712;2022-11-14T10:57:24;22.00;;;17.85;;
48574;SDS011;34352;51.084;3.712;2022-11-14T10:59:51;22.48;;;19.00;;
48574;SDS011;34352;51.084;3.712;2022-11-14T11:02:19;23.05;;;17.63;;
48574;SDS011;34352;51.084;3.712;2022-11-14T11:04:46;23.17;;;18.95;;
48574;SDS011;34352;51.084;3.712;2022-11-14T11:07:17;22.52;;;18.27;;
48574;SDS011;34352;51.084;3.712;2022-11-14T11:10:21;23.70;;;18.48;;
48574;SDS011;34352;51.084;3.712;2022-11-14T11:13:08;24.90;;;19.58;;
48574;SDS011;34352;51.084;3.712;2022-11-14T11:15:38;23.95;;;18.88;;
48574;SDS011;34352;51.084;3.712;2022-11-14T11:23:51;22.67;;;17.88;;
48574;SDS011;34352;51.084;3.712;2022-11-14T11:26:25;24.02;;;20.05;;
48574;SDS011;34352;51.084;3.712;2022-11-14T11:31:54;22.05;;;18.85;;
48574;SDS011;34352;51.084;3.712;2022-11-14T11:34:27;24.02;;;18.90;;
48574;SDS011;34352;51.084;3.712;2022-11-14T11:37:03;26.65;;;19.83;;
48574;SDS011;34352;51.084;3.712;2022-11-14T11:39:34;26.38;;;21.40;;
48574;SDS011;34352;51.084;3.712;2022-11-14T11:42:07;25.25;;;20.48;;
48574;SDS011;34352;51.084;3.712;2022-11-14T11:44:47;27.33;;;21.20;;
48574;SDS011;34352;51.084;3.712;2022-11-14T11:47:18;24.98;;;19.67;;
48574;SDS011;34352;51.084;3.712;2022-11-14T11:49:49;27.08;;;20.35;;
48574;SDS011;34352;51.084;3.712;2022-11-14T11:55:01;25.08;;;19.40;;
48574;SDS011;34352;51.084;3.712;2022-11-14T11:57:42;22.02;;;18.50;;
48574;SDS011;34352;51.084;3.712;2022-11-14T12:00:19;19.77;;;16.90;;
48574;SDS011;34352;51.084;3.712;2022-11-14T12:02:49;20.10;;;16.48;;
48574;SDS011;34352;51.084;3.712;2022-11-14T12:05:23;18.33;;;15.70;;
48574;SDS011;34352;51.084;3.712;2022-11-14T12:08:00;20.92;;;16.17;;
48574;SDS011;34352;51.084;3.712;2022-11-14T12:10:35;18.50;;;16.02;;
48574;SDS011;34352;51.084;3.712;2022-11-14T12:16:05;19.45;;;16.83;;
48574;SDS011;34352;51.084;3.712;2022-11-14T12:30:23;22.80;;;16.45;;
48574;SDS011;34352;51.084;3.712;2022-11-14T12:32:55;22.60;;;17.63;;
48574;SDS011;34352;51.084;3.712;2022-11-14T12:35:23;22.45;;;17.73;;
48574;SDS011;34352;51.084;3.712;2022-11-14T12:37:59;24.30;;;17.85;;
48574;SDS011;34352;51.084;3.712;2022-11-14T12:40:31;25.48;;;18.77;;
48574;SDS011;34352;51.084;3.712;2022-11-14T12:43:03;25.63;;;18.13;;
48574;SDS011;34352;51.084;3.712;2022-11-14T12:50:50;25.15;;;18.02;;
48574;SDS011;34352;51.084;3.712;2022-11-14T12:59:02;24.50;;;18.48;;
48574;SDS011;34352;51.084;3.712;2022-11-14T13:04:36;28.42;;;18.67;;
48574;SDS011;34352;51.084;3.712;2022-11-14T13:10:11;25.48;;;17.02;;
48574;SDS011;34352;51.084;3.712;2022-11-14T13:13:00;25.92;;;17.75;;
48574;SDS011;34352;51.084;3.712;2022-11-14T13:15:59;25.83;;;18.48;;
48574;SDS011;34352;51.084;3.712;2022-11-14T13:27:45;27.02;;;19.45;;
48574;SDS011;34352;51.084;3.712;2022-11-14T13:30:11;28.38;;;18.00;;
48574;SDS011;34352;51.084;3.712;2022-11-14T13:35:10;26.60;;;18.33;;
48574;SDS011;34352;51.084;3.712;2022-11-14T13:40:32;23.90;;;16.67;;
48574;SDS011;34352;51.084;3.712;2022-11-14T13:45:56;25.17;;;17.40;;
48574;SDS011;34352;51.084;3.712;2022-11-14T13:51:08;28.17;;;17.77;;
48574;SDS011;34352;51.084;3.712;2022-11-14T13:53:37;27.73;;;18.23;;
48574;SDS011;34352;51.084;3.712;2022-11-14T13:56:08;27.98;;;17.70;;
48574;SDS011;34352;51.084;3.712;2022-11-14T13:58:57;29.15;;;19.05;;
48574;SDS011;34352;51.084;3.712;2022-11-14T14:04:44;27.23;;;18.30;;
48574;SDS011;34352;51.084;3.712;2022-11-14T14:10:08;31.25;;;18.52;;
48574;SDS011;34352;51.084;3.712;2022-11-14T14:12:55;30.95;;;19.40;;
48574;SDS011;34352;51.084;3.712;2022-11-14T14:15:53;29.73;;;19.45;;
48574;SDS011;34352;51.084;3.712;2022-11-14T14:21:04;34.83;;;20.52;;
48574;SDS011;34352;51.084;3.712;2022-11-14T14:24:00;32.63;;;20.25;;
48574;SDS011;34352;51.084;3.712;2022-11-14T14:29:23;31.67;;;20.02;;
48574;SDS011;34352;51.084;3.712;2022-11-14T14:32:11;33.75;;;20.92;;
48574;SDS011;34352;51.084;3.712;2022-11-14T14:34:38;30.15;;;19.17;;
48574;SDS011;34352;51.084;3.712;2022-11-14T14:37:48;32.58;;;21.17;;
48574;SDS011;34352;51.084;3.712;2022-11-14T14:40:03;30.38;;;19.40;;
48574;SDS011;34352;51.084;3.712;2022-11-14T14:42:40;32.03;;;19.73;;
48574;SDS011;34352;51.084;3.712;2022-11-14T14:45:13;32.55;;;20.40;;
48574;SDS011;34352;51.084;3.712;2022-11-14T14:47:45;31.77;;;20.67;;
48574;SDS011;34352;51.084;3.712;2022-11-14T14:50:22;33.70;;;20.40;;
48574;SDS011;34352;51.084;3.712;2022-11-14T14:52:58;31.15;;;20.20;;
48574;SDS011;34352;51.084;3.712;2022-11-14T14:55:26;35.10;;;20.95;;
48574;SDS011;34352;51.084;3.712;2022-11-14T14:57:54;34.05;;;21.77;;
48574;SDS011;34352;51.084;3.712;2022-11-14T15:00:23;33.75;;;20.20;;
48574;SDS011;34352;51.084;3.712;2022-11-14T15:02:54;31.95;;;20.38;;
48574;SDS011;34352;51.084;3.712;2022-11-14T15:05:21;34.00;;;21.10;;
48574;SDS011;34352;51.084;3.712;2022-11-14T15:07:52;34.35;;;20.60;;
48574;SDS011;34352;51.084;3.712;2022-11-14T15:10:21;36.90;;;20.40;;
48574;SDS011;34352;51.084;3.712;2022-11-14T15:12:53;37.15;;;20.50;;
48574;SDS011;34352;51.084;3.712;2022-11-14T15:15:20;35.10;;;20.63;;
48574;SDS011;34352;51.084;3.712;2022-11-14T15:17:49;34.17;;;21.70;;
48574;SDS011;34352;51.084;3.712;2022-11-14T15:20:35;33.50;;;20.33;;
48574;SDS011;34352;51.084;3.712;2022-11-14T15:25:38;35.72;;;20.60;;
48574;SDS011;34352;51.084;3.712;2022-11-14T15:28:11;37.53;;;22.33;;
48574;SDS011;34352;51.084;3.712;2022-11-14T15:30:53;37.88;;;22.73;;
48574;SDS011;34352;51.084;3.712;2022-11-14T15:33:33;32.70;;;20.33;;
48574;SDS011;34352;51.084;3.712;2022-11-14T15:36:09;32.65;;;17.95;;
48574;SDS011;34352;51.084;3.712;2022-11-14T15:38:38;32.83;;;21.38;;
48574;SDS011;34352;51.084;3.712;2022-11-14T15:43:47;38.03;;;22.05;;
48574;SDS011;34352;51.084;3.712;2022-11-14T15:46:27;38.97;;;22.60;;
48574;SDS011;34352;51.084;3.712;2022-11-14T15:48:57;34.45;;;20.60;;
48574;SDS011;34352;51.084;3.712;2022-11-14T15:51:36;35.30;;;21.17;;
48574;SDS011;34352;51.084;3.712;2022-11-14T15:56:54;39.05;;;23.73;;
48574;SDS011;34352;51.084;3.712;2022-11-14T15:59:23;37.65;;;22.38;;
48574;SDS011;34352;51.084;3.712;2022-11-14T16:01:55;37.63;;;21.98;;
48574;SDS011;34352;51.084;3.712;2022-11-14T16:04:25;37.50;;;22.65;;
48574;SDS011;34352;51.084;3.712;2022-11-14T16:06:54;36.47;;;21.60;;
48574;SDS011;34352;51.084;3.712;2022-11-14T16:09:20;37.58;;;21.58;;
48574;SDS011;34352;51.084;3.712;2022-11-14T16:11:46;39.00;;;22.30;;
48574;SDS011;34352;51.084;3.712;2022-11-14T16:14:12;38.38;;;21.30;;
48574;SDS011;34352;51.084;3.712;2022-11-14T16:16:38;33.97;;;20.00;;
48574;SDS011;34352;51.084;3.712;2022-11-14T16:19:04;39.03;;;21.20;;
48574;SDS011;34352;51.084;3.712;2022-11-14T16:21:31;38.50;;;22.33;;
48574;SDS011;34352;51.084;3.712;2022-11-14T16:23:57;38.17;;;22.10;;
48574;SDS011;34352;51.084;3.712;2022-11-14T16:26:22;37.60;;;22.90;;
48574;SDS011;34352;51.084;3.712;2022-11-14T16:28:52;40.38;;;22.90;;
48574;SDS011;34352;51.084;3.712;2022-11-14T16:31:18;35.75;;;19.58;;
48574;SDS011;34352;51.084;3.712;2022-11-14T16:33:44;37.88;;;21.13;;
48574;SDS011;34352;51.084;3.712;2022-11-14T16:36:10;37.88;;;21.95;;
48574;SDS011;34352;51.084;3.712;2022-11-14T16:38:36;41.85;;;24.83;;
48574;SDS011;34352;51.084;3.712;2022-11-14T16:41:10;39.88;;;22.23;;
48574;SDS011;34352;51.084;3.712;2022-11-14T16:43:38;40.20;;;21.27;;
48574;SDS011;34352;51.084;3.712;2022-11-14T16:46:04;37.72;;;22.60;;
48574;SDS011;34352;51.084;3.712;2022-11-14T16:48:30;37.58;;;21.13;;
48574;SDS011;34352;51.084;3.712;2022-11-14T16:51:00;38.08;;;21.42;;
48574;SDS011;34352;51.084;3.712;2022-11-14T16:53:27;36.40;;;20.90;;
48574;SDS011;34352;51.084;3.712;2022-11-14T16:55:54;36.65;;;21.70;;
48574;SDS011;34352;51.084;3.712;2022-11-14T16:58:20;37.70;;;20.33;;
48574;SDS011;34352;51.084;3.712;2022-11-14T17:00:46;37.60;;;20.33;;